createdAt,value
2019-01-31T00:01:52.081Z,9.23
2019-01-31T00:04:54.677Z,6.12
2019-01-31T00:08:23.403Z,6.45
2019-01-31T00:11:25.679Z,7.08
2019-01-31T00:14:54.480Z,7.92
2019-01-31T00:17:49.857Z,7.95
2019-01-31T00:20:40.094Z,4.47
2019-01-31T00:24:08.879Z,7.12
2019-01-31T00:27:01.137Z,7.45
2019-01-31T00:30:30.234Z,6.00
2019-01-31T00:33:33.531Z,8.03
2019-01-31T00:37:02.313Z,12.30
2019-01-31T00:40:06.847Z,5.05
2019-01-31T00:43:16.387Z,5.15
2019-01-31T00:46:45.131Z,6.40
2019-01-31T00:49:47.122Z,5.28
2019-01-31T00:53:04.368Z,12.30
2019-01-31T00:55:59.218Z,6.30
2019-01-31T00:58:56.030Z,8.00
2019-01-31T01:02:24.748Z,6.75
2019-01-31T01:05:29.276Z,7.45
2019-01-31T01:08:36.989Z,4.90
2019-01-31T01:11:26.366Z,6.10
2019-01-31T01:14:31.333Z,8.20
2019-01-31T01:17:47.636Z,4.37
2019-01-31T01:20:44.008Z,8.30
2019-01-31T01:23:42.877Z,5.10
2019-01-31T01:26:33.022Z,3.75
2019-01-31T01:30:01.736Z,4.20
2019-01-31T01:36:33.009Z,5.20
2019-01-31T01:39:35.521Z,7.92
2019-01-31T01:43:04.262Z,6.22
2019-01-31T01:46:09.111Z,6.78
2019-01-31T01:49:37.911Z,8.28
2019-01-31T01:52:27.563Z,6.15
2019-01-31T01:55:50.247Z,6.70
2019-01-31T01:58:45.441Z,8.93
2019-01-31T02:02:16.955Z,10.63
2019-01-31T02:05:20.308Z,5.30
2019-01-31T02:08:45.467Z,7.08
2019-01-31T02:11:48.329Z,5.92
2019-01-31T02:15:17.194Z,6.10
2019-01-31T02:18:12.350Z,7.58
2019-01-31T02:21:41.062Z,7.67
2019-01-31T02:24:30.510Z,9.80
2019-01-31T02:27:43.927Z,9.55
2019-01-31T02:30:30.266Z,8.95
2019-01-31T02:33:54.129Z,7.00
2019-01-31T02:37:00.275Z,7.25
2019-01-31T02:40:28.996Z,6.12
2019-01-31T02:43:58.682Z,6.87
2019-01-31T02:46:46.296Z,9.10
2019-01-31T02:50:15.013Z,7.90
2019-01-31T02:53:17.810Z,7.70
2019-01-31T02:56:34.255Z,6.70
2019-01-31T02:59:54.202Z,6.12
2019-01-31T03:02:56.345Z,5.15
2019-01-31T03:05:58.883Z,7.53
2019-01-31T03:09:22.643Z,5.30
2019-01-31T03:12:09.444Z,10.65
2019-01-31T03:18:39.587Z,6.67
2019-01-31T03:22:03.875Z,7.75
2019-01-31T03:24:57.864Z,6.00
2019-01-31T03:28:13.547Z,9.85
2019-01-31T03:34:50.773Z,10.63
2019-01-31T03:38:20.640Z,8.05
2019-01-31T03:41:33.681Z,7.70
2019-01-31T03:45:05.413Z,6.35
2019-01-31T03:48:26.780Z,13.40
2019-01-31T03:51:52.475Z,11.57
2019-01-31T03:55:15.807Z,11.12
2019-01-31T03:58:24.210Z,9.03
2019-01-31T04:02:16.329Z,7.85
2019-01-31T04:05:10.653Z,12.85
2019-01-31T04:07:42.220Z,7.83
2019-01-31T04:10:19.167Z,11.57
2019-01-31T04:12:46.899Z,8.50
2019-01-31T04:15:18.850Z,15.50
2019-01-31T04:17:50.327Z,12.33
2019-01-31T04:20:21.751Z,10.78
2019-01-31T04:22:53.316Z,9.43
2019-01-31T04:25:24.747Z,8.53
2019-01-31T04:27:56.184Z,13.00
2019-01-31T04:30:27.816Z,14.33
2019-01-31T04:32:59.257Z,9.43
2019-01-31T04:35:30.620Z,11.10
2019-01-31T04:38:02.097Z,11.45
2019-01-31T04:40:33.452Z,5.90
2019-01-31T04:43:04.948Z,10.03
2019-01-31T04:45:36.435Z,7.80
2019-01-31T04:48:07.926Z,8.93
2019-01-31T04:50:39.369Z,7.65
2019-01-31T04:53:11.039Z,9.10
2019-01-31T04:55:42.479Z,6.00
2019-01-31T04:58:13.995Z,10.03
2019-01-31T05:00:45.478Z,8.88
2019-01-31T05:03:18.060Z,4.30
2019-01-31T05:05:49.534Z,9.83
2019-01-31T05:08:20.990Z,4.85
2019-01-31T05:10:52.460Z,4.95
2019-01-31T05:13:24.326Z,7.75
2019-01-31T05:15:56.073Z,6.53
2019-01-31T05:18:27.507Z,9.43
2019-01-31T05:20:58.897Z,7.92
2019-01-31T05:23:30.347Z,10.50
2019-01-31T05:26:01.759Z,6.85
2019-01-31T05:28:33.522Z,7.83
2019-01-31T05:31:05.294Z,7.22
2019-01-31T05:33:36.739Z,6.60
2019-01-31T05:36:08.145Z,13.53
2019-01-31T05:38:39.596Z,12.60
2019-01-31T05:41:11.021Z,26.57
2019-01-31T05:43:42.372Z,11.45
2019-01-31T05:46:13.812Z,10.05
2019-01-31T05:48:45.592Z,8.58
2019-01-31T05:51:16.822Z,12.03
2019-01-31T05:53:48.259Z,5.85
2019-01-31T05:56:19.725Z,6.40
2019-01-31T05:58:51.184Z,7.33
2019-01-31T06:01:23.538Z,4.37
2019-01-31T06:03:55.006Z,7.65
2019-01-31T06:06:26.426Z,11.10
2019-01-31T06:08:57.878Z,5.00
2019-01-31T06:11:29.307Z,8.00
2019-01-31T06:14:00.629Z,8.93
2019-01-31T06:16:31.979Z,27.13
2019-01-31T06:19:03.374Z,19.12
2019-01-31T06:21:34.804Z,7.70
2019-01-31T06:24:06.193Z,5.97
2019-01-31T06:26:37.549Z,4.72
2019-01-31T06:29:08.963Z,4.55
2019-01-31T06:31:40.417Z,7.47
2019-01-31T06:34:11.846Z,6.92
2019-01-31T06:36:43.412Z,6.37
2019-01-31T06:39:14.829Z,8.03
2019-01-31T06:41:46.523Z,7.87
2019-01-31T06:44:17.884Z,7.37
2019-01-31T06:46:49.459Z,5.53
2019-01-31T06:49:21.390Z,10.03
2019-01-31T06:51:52.813Z,6.35
2019-01-31T06:54:24.236Z,5.42
2019-01-31T06:56:55.610Z,6.67
2019-01-31T06:59:26.935Z,9.03
2019-01-31T07:01:58.422Z,7.65
2019-01-31T07:04:29.922Z,11.57
2019-01-31T07:07:01.351Z,6.78
2019-01-31T07:09:32.766Z,7.05
2019-01-31T07:12:04.776Z,9.40
2019-01-31T07:14:36.225Z,7.53
2019-01-31T07:17:07.642Z,4.95
2019-01-31T07:19:38.882Z,8.45
2019-01-31T07:22:11.197Z,6.20
2019-01-31T07:24:42.532Z,8.50
2019-01-31T07:27:13.947Z,10.93
2019-01-31T07:29:45.452Z,8.58
2019-01-31T07:32:16.920Z,13.43
2019-01-31T07:34:49.255Z,8.98
2019-01-31T07:37:20.852Z,7.40
2019-01-31T07:39:52.287Z,14.28
2019-01-31T07:42:23.728Z,5.15
2019-01-31T07:44:55.103Z,4.35
2019-01-31T07:47:26.506Z,4.67
2019-01-31T07:49:57.948Z,3.70
2019-01-31T07:52:29.364Z,6.83
2019-01-31T07:55:01.994Z,4.58
2019-01-31T07:57:33.822Z,5.35
2019-01-31T08:00:06.722Z,6.80
2019-01-31T08:02:38.298Z,3.90
2019-01-31T08:05:16.491Z,4.17
2019-01-31T08:07:48.861Z,6.78
2019-01-31T08:10:30.288Z,3.37
2019-01-31T08:13:01.732Z,5.65
2019-01-31T08:15:34.245Z,3.58
2019-01-31T08:18:06.063Z,5.37
2019-01-31T08:20:37.758Z,5.55
2019-01-31T08:23:09.735Z,6.33
2019-01-31T08:25:41.160Z,9.13
2019-01-31T08:28:12.184Z,4.83
2019-01-31T08:30:44.670Z,5.20
2019-01-31T08:33:16.455Z,5.97
2019-01-31T08:35:47.929Z,14.23
2019-01-31T08:38:19.536Z,5.95
2019-01-31T08:40:51.049Z,7.70
2019-01-31T08:43:22.508Z,5.70
2019-01-31T08:45:53.979Z,6.10
2019-01-31T08:48:25.407Z,3.35
2019-01-31T08:50:56.900Z,6.05
2019-01-31T08:53:28.329Z,3.62
2019-01-31T08:55:59.740Z,4.20
2019-01-31T08:58:31.202Z,4.78
2019-01-31T09:01:02.654Z,5.45
2019-01-31T09:03:34.075Z,3.35
2019-01-31T09:06:05.583Z,3.80
2019-01-31T09:08:37.116Z,5.75
2019-01-31T09:11:08.508Z,6.00
2019-01-31T09:13:40.001Z,3.27
2019-01-31T09:16:11.469Z,6.78
2019-01-31T09:18:42.913Z,6.60
2019-01-31T09:22:02.491Z,3.30
2019-01-31T09:25:46.915Z,4.90
2019-01-31T09:28:45.571Z,6.42
2019-01-31T09:32:07.063Z,6.22
2019-01-31T09:35:15.603Z,3.40
2019-01-31T09:38:48.033Z,3.95
2019-01-31T09:42:26.737Z,7.42
2019-01-31T09:46:29.953Z,4.92
2019-01-31T09:49:56.768Z,3.65
2019-01-31T09:52:59.512Z,5.25
2019-01-31T09:56:34.798Z,4.03
2019-01-31T10:00:09.014Z,4.00
2019-01-31T10:03:22.981Z,4.40
2019-01-31T10:07:06.220Z,4.85
2019-01-31T10:10:10.744Z,3.83
2019-01-31T10:13:46.772Z,4.95
2019-01-31T10:17:07.290Z,7.60
2019-01-31T10:20:24.491Z,9.30
2019-01-31T10:23:12.155Z,7.40
2019-01-31T10:26:16.255Z,9.35
2019-01-31T10:29:39.464Z,6.12
2019-01-31T10:32:59.396Z,5.35
2019-01-31T10:36:46.538Z,10.38
2019-01-31T10:40:37.044Z,4.67
2019-01-31T10:44:03.101Z,6.67
2019-01-31T10:47:13.906Z,4.47
2019-01-31T10:50:51.591Z,2.95
2019-01-31T10:54:05.776Z,3.20
2019-01-31T10:57:36.723Z,6.37
2019-01-31T11:00:54.238Z,2.92
2019-01-31T11:04:24.922Z,3.35
2019-01-31T11:07:42.258Z,3.45
2019-01-31T11:10:51.636Z,4.37
2019-01-31T11:14:19.794Z,4.17
2019-01-31T11:17:43.415Z,4.22
2019-01-31T11:21:36.541Z,2.40
2019-01-31T11:25:17.789Z,2.55
2019-01-31T11:28:45.924Z,3.60
2019-01-31T11:32:09.196Z,2.50
2019-01-31T11:35:35.538Z,3.33
2019-01-31T11:38:38.037Z,3.02
2019-01-31T11:42:00.375Z,2.37
2019-01-31T11:45:50.200Z,2.30
2019-01-31T11:48:51.682Z,2.70
2019-01-31T11:52:41.923Z,3.75
2019-01-31T11:55:49.619Z,2.50
2019-01-31T11:59:06.428Z,2.17
2019-01-31T12:01:38.650Z,2.12
2019-01-31T12:04:20.242Z,4.78
2019-01-31T12:06:51.857Z,2.42
2019-01-31T12:09:24.784Z,2.22
2019-01-31T12:11:56.172Z,2.30
2019-01-31T12:14:27.604Z,10.48
2019-01-31T12:16:58.989Z,2.55
2019-01-31T12:19:30.448Z,2.15
2019-01-31T12:22:01.859Z,2.75
2019-01-31T12:24:33.257Z,2.37
2019-01-31T12:27:04.824Z,2.35
2019-01-31T12:29:36.349Z,7.83
2019-01-31T12:32:08.035Z,4.53
2019-01-31T12:34:39.568Z,3.80
2019-01-31T12:37:11.035Z,2.15
2019-01-31T12:39:42.527Z,2.35
2019-01-31T12:42:14.037Z,1.70
2019-01-31T12:44:45.450Z,2.10
2019-01-31T12:47:16.863Z,2.30
2019-01-31T12:49:48.236Z,2.20
2019-01-31T12:52:19.684Z,2.02
2019-01-31T12:54:51.109Z,2.30
2019-01-31T12:57:22.620Z,4.62
2019-01-31T12:59:54.494Z,2.02
2019-01-31T13:02:25.833Z,3.22
2019-01-31T13:04:57.305Z,4.30
2019-01-31T13:07:28.719Z,3.92
2019-01-31T13:10:00.355Z,3.05
2019-01-31T13:12:31.757Z,2.15
2019-01-31T13:15:03.232Z,3.05
2019-01-31T13:17:35.582Z,1.90
2019-01-31T13:20:12.703Z,3.10
2019-01-31T13:22:44.150Z,4.60
2019-01-31T13:25:16.774Z,3.17
2019-01-31T13:27:48.240Z,2.17
2019-01-31T13:30:21.464Z,2.27
2019-01-31T13:32:54.377Z,3.85
2019-01-31T13:35:25.849Z,1.98
2019-01-31T13:37:58.304Z,3.58
2019-01-31T13:40:30.665Z,1.67
2019-01-31T13:43:02.073Z,3.37
2019-01-31T13:45:36.899Z,6.83
2019-01-31T13:48:16.827Z,2.85
2019-01-31T13:50:48.249Z,2.42
2019-01-31T13:53:19.643Z,2.40
2019-01-31T13:55:51.279Z,3.08
2019-01-31T13:58:22.558Z,2.12
2019-01-31T14:00:53.967Z,1.85
2019-01-31T14:03:25.278Z,5.28
2019-01-31T14:05:56.697Z,4.30
2019-01-31T14:08:28.116Z,3.50
2019-01-31T14:10:59.542Z,3.10
2019-01-31T14:13:30.945Z,3.17
2019-01-31T14:16:02.317Z,4.67
2019-01-31T14:18:33.821Z,5.87
2019-01-31T14:21:05.283Z,4.37
2019-01-31T14:23:36.851Z,2.90
2019-01-31T14:26:08.716Z,2.37
2019-01-31T14:28:40.188Z,2.42
2019-01-31T14:31:11.800Z,4.53
2019-01-31T14:33:43.453Z,5.65
2019-01-31T14:36:14.949Z,6.83
2019-01-31T14:38:46.400Z,5.40
2019-01-31T14:41:17.818Z,3.90
2019-01-31T14:43:49.316Z,3.52
2019-01-31T14:46:20.688Z,2.58
2019-01-31T14:48:52.067Z,3.12
2019-01-31T14:51:23.501Z,6.95
2019-01-31T14:53:54.942Z,2.50
2019-01-31T14:56:26.405Z,4.08
2019-01-31T14:58:57.954Z,9.63
2019-01-31T15:01:29.301Z,4.22
2019-01-31T15:04:00.742Z,4.20
2019-01-31T15:06:32.157Z,5.65
2019-01-31T15:09:04.498Z,5.47
2019-01-31T15:11:37.217Z,3.33
2019-01-31T15:14:08.679Z,3.92
2019-01-31T15:16:40.099Z,2.65
2019-01-31T15:19:11.586Z,6.08
2019-01-31T15:21:43.193Z,2.77
2019-01-31T15:24:16.533Z,4.80
2019-01-31T15:26:47.995Z,4.92
2019-01-31T15:29:19.389Z,8.10
2019-01-31T15:31:50.929Z,3.65
2019-01-31T15:34:22.386Z,2.40
2019-01-31T15:36:53.761Z,2.83
2019-01-31T15:39:25.204Z,6.83
2019-01-31T15:41:56.638Z,2.50
2019-01-31T15:44:28.142Z,5.58
2019-01-31T15:46:59.590Z,4.35
2019-01-31T15:49:30.995Z,7.12
2019-01-31T15:52:02.646Z,4.60
2019-01-31T15:54:34.142Z,4.92
2019-01-31T15:57:16.143Z,6.83
2019-01-31T15:59:39.252Z,7.58
2019-01-31T16:02:10.820Z,6.65
2019-01-31T16:04:42.231Z,5.45
2019-01-31T16:07:13.609Z,6.40
2019-01-31T16:09:45.039Z,8.05
2019-01-31T16:12:16.439Z,9.98
2019-01-31T16:14:54.533Z,7.35
2019-01-31T16:17:21.000Z,7.47
2019-01-31T16:19:52.433Z,13.72
2019-01-31T16:22:23.836Z,5.00
2019-01-31T16:24:55.266Z,5.75
2019-01-31T16:27:26.649Z,5.97
2019-01-31T16:29:58.083Z,9.35
2019-01-31T16:32:29.487Z,8.45
2019-01-31T16:35:01.165Z,5.45
2019-01-31T16:37:32.767Z,6.22
2019-01-31T16:40:04.510Z,9.68
2019-01-31T16:42:36.002Z,10.45
2019-01-31T16:45:10.215Z,11.20
2019-01-31T16:47:41.650Z,10.32
2019-01-31T16:50:16.179Z,7.50
2019-01-31T16:52:47.696Z,11.95
2019-01-31T16:55:21.367Z,9.78
2019-01-31T16:57:54.895Z,7.47
2019-01-31T17:00:29.038Z,7.80
2019-01-31T17:03:00.462Z,10.53
2019-01-31T17:05:32.930Z,10.68
2019-01-31T17:08:05.291Z,5.92
2019-01-31T17:10:36.842Z,9.78
2019-01-31T17:13:09.172Z,9.05
2019-01-31T17:15:40.716Z,9.60
2019-01-31T17:18:12.128Z,9.00
2019-01-31T17:20:45.891Z,11.50
2019-01-31T17:23:17.391Z,21.10
2019-01-31T17:25:48.805Z,16.35
2019-01-31T17:28:20.357Z,18.27
2019-01-31T17:30:51.927Z,16.87
2019-01-31T17:33:23.404Z,10.32
2019-01-31T17:35:54.818Z,6.58
2019-01-31T17:38:26.255Z,6.58
2019-01-31T17:40:57.731Z,9.38
2019-01-31T17:43:29.111Z,12.65
2019-01-31T17:46:00.760Z,13.25
2019-01-31T17:48:35.331Z,17.48
2019-01-31T17:51:05.981Z,15.60
2019-01-31T17:53:37.447Z,14.28
2019-01-31T17:56:08.858Z,8.05
2019-01-31T17:58:41.483Z,15.90
2019-01-31T18:01:13.906Z,10.43
2019-01-31T18:03:45.313Z,8.55
2019-01-31T18:06:18.812Z,8.90
2019-01-31T18:08:49.851Z,21.87
2019-01-31T18:11:21.845Z,10.60
2019-01-31T18:13:53.891Z,14.35
2019-01-31T18:16:25.353Z,6.87
2019-01-31T18:18:56.781Z,8.78
2019-01-31T18:21:28.207Z,8.68
2019-01-31T18:23:59.719Z,14.60
2019-01-31T18:26:33.209Z,8.45
2019-01-31T18:29:05.261Z,15.85
2019-01-31T18:31:37.384Z,15.28
2019-01-31T18:34:16.116Z,10.45
2019-01-31T18:36:47.497Z,7.70
2019-01-31T18:39:20.020Z,12.13
2019-01-31T18:41:51.690Z,8.63
2019-01-31T18:44:23.437Z,8.80
2019-01-31T18:46:54.878Z,6.35
2019-01-31T18:49:26.413Z,9.00
2019-01-31T18:51:57.973Z,8.63
2019-01-31T18:54:29.484Z,7.90
2019-01-31T18:57:02.053Z,19.98
2019-01-31T18:59:34.444Z,25.17
2019-01-31T19:02:07.996Z,17.25
2019-01-31T19:04:39.518Z,16.45
2019-01-31T19:07:10.977Z,11.65
2019-01-31T19:09:42.505Z,9.55
2019-01-31T19:12:13.951Z,9.80
2019-01-31T19:14:46.379Z,11.63
2019-01-31T19:17:18.302Z,9.35
2019-01-31T19:19:49.782Z,7.67
2019-01-31T19:22:21.257Z,26.90
2019-01-31T19:24:55.769Z,7.17
2019-01-31T19:27:27.377Z,9.28
2019-01-31T19:29:59.100Z,8.13
2019-01-31T19:32:30.905Z,7.20
2019-01-31T19:35:02.415Z,8.23
2019-01-31T19:37:34.577Z,7.03
2019-01-31T19:40:07.934Z,8.18
2019-01-31T19:42:39.481Z,6.17
2019-01-31T19:45:18.991Z,8.28
2019-01-31T19:47:50.499Z,6.20
2019-01-31T19:50:21.947Z,11.28
2019-01-31T19:52:53.811Z,9.15
2019-01-31T19:55:25.786Z,11.38
2019-01-31T19:57:58.880Z,11.65
2019-01-31T20:00:30.352Z,8.50
2019-01-31T20:03:01.863Z,12.58
2019-01-31T20:05:33.661Z,6.05
2019-01-31T20:08:06.968Z,7.00
2019-01-31T20:10:38.284Z,6.15
2019-01-31T20:13:09.796Z,7.87
2019-01-31T20:15:43.103Z,6.15
2019-01-31T20:18:14.583Z,6.25
2019-01-31T20:20:46.047Z,6.62
2019-01-31T20:23:17.532Z,11.15
2019-01-31T20:25:49.064Z,6.50
2019-01-31T20:28:20.594Z,7.40
2019-01-31T20:30:52.150Z,8.78
2019-01-31T20:33:23.749Z,8.93
2019-01-31T20:35:55.230Z,7.62
2019-01-31T20:38:27.533Z,8.35
2019-01-31T20:40:59.017Z,10.18
2019-01-31T20:43:30.478Z,7.78
2019-01-31T20:46:02.027Z,7.42
2019-01-31T20:48:33.568Z,8.55
2019-01-31T20:51:05.613Z,7.97
2019-01-31T20:53:38.228Z,11.90
2019-01-31T20:56:09.816Z,9.20
2019-01-31T20:58:41.303Z,9.98
2019-01-31T21:01:12.853Z,7.60
2019-01-31T21:03:44.317Z,10.35
2019-01-31T21:06:15.765Z,9.30
2019-01-31T21:08:47.460Z,8.78
2019-01-31T21:11:18.871Z,8.78
2019-01-31T21:13:50.444Z,11.00
2019-01-31T21:16:21.943Z,8.33
2019-01-31T21:18:53.341Z,7.55
2019-01-31T21:21:24.851Z,10.40
2019-01-31T21:23:58.187Z,10.78
2019-01-31T21:26:29.649Z,12.20
2019-01-31T21:29:01.136Z,9.68
2019-01-31T21:31:32.615Z,10.38
2019-01-31T21:34:04.076Z,12.37
2019-01-31T21:36:35.340Z,11.30
2019-01-31T21:39:09.595Z,17.67
2019-01-31T21:41:41.410Z,11.40
2019-01-31T21:44:12.900Z,11.33
2019-01-31T21:46:44.296Z,15.03
2019-01-31T21:49:16.733Z,11.00
2019-01-31T21:51:48.070Z,12.68
2019-01-31T21:54:20.654Z,23.47
2019-01-31T21:56:52.247Z,14.60
2019-01-31T21:59:23.757Z,16.27
2019-01-31T22:01:55.447Z,14.33
2019-01-31T22:04:28.694Z,20.10
2019-01-31T22:07:01.068Z,14.65
2019-01-31T22:09:32.716Z,10.53
2019-01-31T22:12:04.208Z,13.90
2019-01-31T22:14:35.934Z,12.50
2019-01-31T22:17:14.302Z,13.18
2019-01-31T22:19:40.422Z,11.08
2019-01-31T22:22:11.894Z,16.62
2019-01-31T22:24:43.243Z,17.15
2019-01-31T22:27:14.727Z,13.40
2019-01-31T22:29:47.434Z,15.13
2019-01-31T22:32:18.943Z,13.58
2019-01-31T22:34:50.497Z,16.97
2019-01-31T22:37:21.902Z,15.28
2019-01-31T22:39:53.435Z,13.13
2019-01-31T22:42:24.873Z,16.17
2019-01-31T22:44:56.619Z,10.58
2019-01-31T22:47:28.044Z,10.10
2019-01-31T22:49:59.508Z,19.00
2019-01-31T22:52:30.886Z,9.90
2019-01-31T22:55:02.281Z,10.53
2019-01-31T22:57:33.824Z,11.43
2019-01-31T23:00:20.751Z,14.73
2019-01-31T23:02:53.825Z,12.53
2019-01-31T23:05:25.274Z,9.65
2019-01-31T23:07:56.713Z,9.23
2019-01-31T23:10:28.422Z,12.58
2019-01-31T23:12:59.921Z,9.85
2019-01-31T23:15:31.307Z,10.43
2019-01-31T23:18:02.701Z,9.88
2019-01-31T23:20:34.104Z,14.33
2019-01-31T23:23:05.683Z,7.45
2019-01-31T23:25:40.294Z,8.55
2019-01-31T23:28:10.200Z,6.70
2019-01-31T23:30:41.531Z,10.00
2019-01-31T23:33:13.384Z,10.85
2019-01-31T23:35:45.244Z,7.30
2019-01-31T23:38:16.790Z,8.88
2019-01-31T23:40:48.282Z,11.60
2019-01-31T23:43:22.111Z,9.05
2019-01-31T23:45:53.652Z,10.18
2019-01-31T23:48:25.030Z,7.47
2019-01-31T23:50:56.448Z,8.38
2019-01-31T23:53:27.837Z,8.33
2019-01-31T23:56:00.222Z,6.30
2019-01-31T23:58:31.583Z,7.70
